createdAt,value
2024-02-17T00:00:56.758Z,1013.03
2024-02-17T00:01:57.771Z,1013.05
2024-02-17T00:02:57.757Z,1013.06
2024-02-17T00:03:58.300Z,1013.06
2024-02-17T00:04:59.274Z,1013.07
2024-02-17T00:06:00.961Z,1013.08
2024-02-17T00:07:01.812Z,1013.10
2024-02-17T00:08:01.727Z,1013.11
2024-02-17T00:09:02.573Z,1013.11
2024-02-17T00:10:03.454Z,1013.10
2024-02-17T00:11:04.364Z,1013.12
2024-02-17T00:12:05.439Z,1013.13
2024-02-17T00:13:07.109Z,1013.11
2024-02-17T00:14:07.802Z,1013.12
2024-02-17T00:15:08.438Z,1013.13
2024-02-17T00:16:08.392Z,1013.15
2024-02-17T00:17:09.309Z,1013.16
2024-02-17T00:18:10.518Z,1013.18
2024-02-17T00:19:11.075Z,1013.19
2024-02-17T00:20:12.303Z,1013.18
2024-02-17T00:21:12.765Z,1013.19
2024-02-17T00:22:13.793Z,1013.20
2024-02-17T00:23:14.206Z,1013.22
2024-02-17T00:24:15.136Z,1013.26
2024-02-17T00:25:16.012Z,1013.28
2024-02-17T00:26:17.822Z,1013.29
2024-02-17T00:27:17.725Z,1013.32
2024-02-17T00:28:19.308Z,1013.32
2024-02-17T00:29:19.206Z,1013.33
2024-02-17T00:30:20.095Z,1013.32
2024-02-17T00:31:21.019Z,1013.33
2024-02-17T00:32:21.950Z,1013.34
2024-02-17T00:33:23.807Z,1013.36
2024-02-17T00:34:24.325Z,1013.38
2024-02-17T00:35:24.272Z,1013.41
2024-02-17T00:36:25.215Z,1013.41
2024-02-17T00:37:26.122Z,1013.42
2024-02-17T00:38:27.037Z,1013.43
2024-02-17T00:39:28.861Z,1013.45
2024-02-17T00:40:30.318Z,1013.46
2024-02-17T00:41:29.747Z,1013.47
2024-02-17T00:42:30.723Z,1013.50
2024-02-17T00:43:31.612Z,1013.52
2024-02-17T00:44:32.539Z,1013.53
2024-02-17T00:45:33.518Z,1013.54
2024-02-17T00:46:34.402Z,1013.54
2024-02-17T00:47:35.331Z,1013.54
2024-02-17T00:48:36.372Z,1013.54
2024-02-17T00:49:36.997Z,1013.52
2024-02-17T00:50:37.438Z,1013.51
2024-02-17T00:51:38.369Z,1013.50
2024-02-17T00:52:39.800Z,1013.50
2024-02-17T00:53:40.185Z,1013.50
2024-02-17T00:54:42.823Z,1013.51
2024-02-17T00:55:41.695Z,1013.52
2024-02-17T00:56:42.606Z,1013.55
2024-02-17T00:57:43.528Z,1013.56
2024-02-17T00:58:46.328Z,1013.58
2024-02-17T00:59:46.848Z,1013.60
2024-02-17T01:00:45.801Z,1013.63
2024-02-17T01:01:48.149Z,1013.66
2024-02-17T01:02:47.782Z,1013.69
2024-02-17T01:03:49.025Z,1013.73
2024-02-17T01:04:49.260Z,1013.75
2024-02-17T01:05:49.735Z,1013.75
2024-02-17T01:06:51.436Z,1013.75
2024-02-17T01:07:51.383Z,1013.74
2024-02-17T01:08:52.311Z,1013.76
2024-02-17T01:09:53.277Z,1013.79
2024-02-17T01:10:54.810Z,1013.82
2024-02-17T01:11:54.698Z,1013.82
2024-02-17T01:12:56.288Z,1013.84
2024-02-17T01:13:56.795Z,1013.85
2024-02-17T01:14:58.338Z,1013.86
2024-02-17T01:15:57.219Z,1013.87
2024-02-17T01:16:58.190Z,1013.88
2024-02-17T01:17:59.841Z,1013.89
2024-02-17T01:18:59.902Z,1013.91
2024-02-17T01:20:00.413Z,1013.94
2024-02-17T01:21:00.815Z,1013.96
2024-02-17T01:22:01.748Z,1013.97
2024-02-17T01:23:02.691Z,1013.97
2024-02-17T01:24:05.341Z,1013.98
2024-02-17T01:25:04.795Z,1013.98
2024-02-17T01:26:06.851Z,1014.00
2024-02-17T01:27:05.854Z,1014.01
2024-02-17T01:28:06.772Z,1014.02
2024-02-17T01:29:07.666Z,1014.02
2024-02-17T01:30:08.647Z,1014.04
2024-02-17T01:31:09.528Z,1014.05
2024-02-17T01:32:11.293Z,1014.06
2024-02-17T01:33:11.279Z,1014.07
2024-02-17T01:34:12.392Z,1014.08
2024-02-17T01:35:12.369Z,1014.08
2024-02-17T01:36:13.253Z,1014.10
2024-02-17T01:37:14.174Z,1014.11
2024-02-17T01:38:15.071Z,1014.11
2024-02-17T01:39:16.822Z,1014.13
2024-02-17T01:40:16.718Z,1014.14
2024-02-17T01:41:17.798Z,1014.14
2024-02-17T01:42:18.820Z,1014.16
2024-02-17T01:43:18.718Z,1014.17
2024-02-17T01:44:19.622Z,1014.17
2024-02-17T01:45:20.568Z,1014.18
2024-02-17T01:46:21.476Z,1014.21
2024-02-17T01:47:23.317Z,1014.22
2024-02-17T01:48:23.346Z,1014.22
2024-02-17T01:49:23.933Z,1014.23
2024-02-17T01:50:24.801Z,1014.23
2024-02-17T01:51:25.634Z,1014.25
2024-02-17T01:52:26.562Z,1014.27
2024-02-17T01:53:27.469Z,1014.27
2024-02-17T01:54:28.400Z,1014.28
2024-02-17T01:55:29.331Z,1014.28
2024-02-17T01:56:30.249Z,1014.32
2024-02-17T01:57:31.824Z,1014.32
2024-02-17T01:58:31.751Z,1014.32
2024-02-17T01:59:32.646Z,1014.31
2024-02-17T02:00:34.616Z,1014.31
2024-02-17T02:01:34.811Z,1014.32
2024-02-17T02:02:34.693Z,1014.33
2024-02-17T02:03:37.432Z,1014.33
2024-02-17T02:04:36.451Z,1014.33
2024-02-17T02:05:36.913Z,1014.33
2024-02-17T02:06:37.855Z,1014.34
2024-02-17T02:07:39.301Z,1014.35
2024-02-17T02:08:39.704Z,1014.36
2024-02-17T02:09:40.686Z,1014.36
2024-02-17T02:10:42.311Z,1014.36
2024-02-17T02:11:42.197Z,1014.36
2024-02-17T02:12:43.923Z,1014.38
2024-02-17T02:13:43.891Z,1014.39
2024-02-17T02:14:44.935Z,1014.42
2024-02-17T02:15:53.515Z,1014.44
2024-02-17T02:16:47.533Z,1014.45
2024-02-17T02:17:48.316Z,1014.46
2024-02-17T02:18:48.259Z,1014.47
2024-02-17T02:19:49.863Z,1014.48
2024-02-17T02:20:51.464Z,1014.49
2024-02-17T02:21:51.311Z,1014.49
2024-02-17T02:22:51.232Z,1014.51
2024-02-17T02:23:52.129Z,1014.51
2024-02-17T02:24:53.066Z,1014.54
2024-02-17T02:25:54.044Z,1014.55
2024-02-17T02:26:54.964Z,1014.57
2024-02-17T02:27:55.971Z,1014.56
2024-02-17T02:28:56.897Z,1014.55
2024-02-17T02:29:58.349Z,1014.56
2024-02-17T02:31:00.432Z,1014.56
2024-02-17T02:31:59.362Z,1014.58
2024-02-17T02:33:00.538Z,1014.59
2024-02-17T02:34:01.243Z,1014.60
2024-02-17T02:35:01.813Z,1014.60
2024-02-17T02:36:02.251Z,1014.61
2024-02-17T02:37:03.154Z,1014.61
2024-02-17T02:38:04.094Z,1014.63
2024-02-17T02:39:05.031Z,1014.64
2024-02-17T02:40:05.922Z,1014.65
2024-02-17T02:41:06.837Z,1014.66
2024-02-17T02:42:08.355Z,1014.67
2024-02-17T02:43:08.754Z,1014.67
2024-02-17T02:44:09.676Z,1014.67
2024-02-17T02:45:10.670Z,1014.69
2024-02-17T02:46:11.581Z,1014.70
2024-02-17T02:47:14.316Z,1014.69
2024-02-17T02:48:14.898Z,1014.68
2024-02-17T02:49:13.902Z,1014.69
2024-02-17T02:50:14.350Z,1014.70
2024-02-17T02:51:15.275Z,1014.71
2024-02-17T02:52:16.204Z,1014.71
2024-02-17T02:53:17.151Z,1014.72
2024-02-17T02:54:18.077Z,1014.74
2024-02-17T02:55:20.834Z,1014.75
2024-02-17T02:56:19.745Z,1014.77
2024-02-17T02:57:21.341Z,1014.79
2024-02-17T02:58:21.295Z,1014.77
2024-02-17T02:59:22.189Z,1014.78
2024-02-17T03:00:23.172Z,1014.79
2024-02-17T03:01:26.055Z,1014.81
2024-02-17T03:02:25.806Z,1014.82
2024-02-17T03:03:25.818Z,1014.82
2024-02-17T03:04:26.350Z,1014.83
2024-02-17T03:05:26.960Z,1014.84
2024-02-17T03:06:27.429Z,1014.87
2024-02-17T03:07:29.336Z,1014.89
2024-02-17T03:08:29.244Z,1014.91
2024-02-17T03:09:30.180Z,1014.91
2024-02-17T03:10:31.054Z,1014.94
2024-02-17T03:11:32.118Z,1014.96
2024-02-17T03:12:33.369Z,1014.97
2024-02-17T03:13:33.248Z,1014.97
2024-02-17T03:14:34.148Z,1014.97
2024-02-17T03:15:35.197Z,1014.98
2024-02-17T03:16:35.680Z,1014.99
2024-02-17T03:17:36.603Z,1015.02
2024-02-17T03:18:37.470Z,1015.02
2024-02-17T03:19:38.435Z,1015.03
2024-02-17T03:20:39.350Z,1015.07
2024-02-17T03:21:42.060Z,1015.07
2024-02-17T03:22:41.824Z,1015.09
2024-02-17T03:23:41.753Z,1015.10
2024-02-17T03:24:43.340Z,1015.10
2024-02-17T03:25:44.835Z,1015.10
2024-02-17T03:26:45.318Z,1015.11
2024-02-17T03:27:44.880Z,1015.11
2024-02-17T03:28:45.341Z,1015.12
2024-02-17T03:29:47.849Z,1015.12
2024-02-17T03:30:46.864Z,1015.12
2024-02-17T03:31:47.285Z,1015.12
2024-02-17T03:32:48.190Z,1015.13
2024-02-17T03:33:49.176Z,1015.13
2024-02-17T03:34:49.747Z,1015.12
2024-02-17T03:35:50.211Z,1015.12
2024-02-17T03:36:51.165Z,1015.10
2024-02-17T03:37:52.067Z,1015.11
2024-02-17T03:38:52.973Z,1015.13
2024-02-17T03:39:56.032Z,1015.16
2024-02-17T03:40:55.328Z,1015.17
2024-02-17T03:41:56.846Z,1015.18
2024-02-17T03:42:55.792Z,1015.18
2024-02-17T03:43:56.735Z,1015.21
2024-02-17T03:44:57.656Z,1015.24
2024-02-17T03:45:58.627Z,1015.26
2024-02-17T03:46:59.557Z,1015.28
2024-02-17T03:48:00.557Z,1015.29
2024-02-17T03:49:01.176Z,1015.31
2024-02-17T03:50:02.540Z,1015.30
2024-02-17T03:51:03.385Z,1015.32
2024-02-17T03:52:04.830Z,1015.35
2024-02-17T03:53:04.233Z,1015.37
2024-02-17T03:54:05.260Z,1015.38
2024-02-17T03:55:05.656Z,1015.41
2024-02-17T03:56:07.331Z,1015.44
2024-02-17T03:57:07.241Z,1015.46
2024-02-17T03:58:08.166Z,1015.47
2024-02-17T03:59:09.107Z,1015.49
2024-02-17T04:00:10.141Z,1015.52
2024-02-17T04:01:10.597Z,1015.52
2024-02-17T04:02:11.090Z,1015.52
2024-02-17T04:03:12.901Z,1015.53
2024-02-17T04:04:12.869Z,1015.54
2024-02-17T04:05:13.988Z,1015.55
2024-02-17T04:06:14.075Z,1015.58
2024-02-17T04:07:14.587Z,1015.59
2024-02-17T04:08:16.337Z,1015.58
2024-02-17T04:09:16.865Z,1015.58
2024-02-17T04:10:16.911Z,1015.59
2024-02-17T04:11:19.380Z,1015.59
2024-02-17T04:12:18.349Z,1015.59
2024-02-17T04:13:19.263Z,1015.58
2024-02-17T04:14:20.223Z,1015.61
2024-02-17T04:15:21.865Z,1015.63
2024-02-17T04:16:23.340Z,1015.65
2024-02-17T04:17:22.844Z,1015.67
2024-02-17T04:18:23.433Z,1015.69
2024-02-17T04:19:25.029Z,1015.71
2024-02-17T04:20:24.622Z,1015.72
2024-02-17T04:21:25.110Z,1015.74
2024-02-17T04:22:26.046Z,1015.77
2024-02-17T04:23:26.968Z,1015.78
2024-02-17T04:24:27.899Z,1015.80
2024-02-17T04:25:28.776Z,1015.84
2024-02-17T04:26:30.328Z,1015.84
2024-02-17T04:27:30.286Z,1015.86
2024-02-17T04:28:31.157Z,1015.88
2024-02-17T04:29:32.837Z,1015.88
2024-02-17T04:30:32.868Z,1015.91
2024-02-17T04:31:33.338Z,1015.91
2024-02-17T04:32:34.257Z,1015.92
2024-02-17T04:33:36.012Z,1015.91
2024-02-17T04:34:36.967Z,1015.91
2024-02-17T04:35:36.977Z,1015.89
2024-02-17T04:36:37.902Z,1015.89
2024-02-17T04:37:38.803Z,1015.89
2024-02-17T04:38:41.358Z,1015.90
2024-02-17T04:39:40.273Z,1015.89
2024-02-17T04:40:41.202Z,1015.88
2024-02-17T04:41:42.100Z,1015.88
2024-02-17T04:42:43.087Z,1015.90
2024-02-17T04:43:43.516Z,1015.95
2024-02-17T04:44:44.450Z,1016.00
2024-02-17T04:45:45.472Z,1016.01
2024-02-17T04:46:45.908Z,1016.04
2024-02-17T04:47:46.874Z,1016.07
2024-02-17T04:48:48.890Z,1016.08
2024-02-17T04:49:47.957Z,1016.11
2024-02-17T04:50:48.381Z,1016.12
2024-02-17T04:51:49.307Z,1016.14
2024-02-17T04:52:50.211Z,1016.14
2024-02-17T04:53:51.111Z,1016.15
2024-02-17T04:54:52.058Z,1016.16
2024-02-17T04:55:52.940Z,1016.19
2024-02-17T04:56:54.836Z,1016.20
2024-02-17T04:57:54.734Z,1016.21
2024-02-17T04:58:55.665Z,1016.24
2024-02-17T04:59:56.601Z,1016.25
2024-02-17T05:00:58.729Z,1016.26
2024-02-17T05:01:58.169Z,1016.26
2024-02-17T05:02:59.866Z,1016.25
2024-02-17T05:04:01.467Z,1016.26
2024-02-17T05:05:00.413Z,1016.25
2024-02-17T05:06:01.332Z,1016.25
2024-02-17T05:07:02.294Z,1016.28
2024-02-17T05:08:03.181Z,1016.29
2024-02-17T05:09:04.297Z,1016.27
2024-02-17T05:10:04.706Z,1016.29
2024-02-17T05:11:05.608Z,1016.28
2024-02-17T05:12:06.597Z,1016.30
2024-02-17T05:13:08.086Z,1016.32
2024-02-17T05:14:09.367Z,1016.34
2024-02-17T05:15:08.271Z,1016.35
2024-02-17T05:16:09.163Z,1016.37
2024-02-17T05:17:10.837Z,1016.36
2024-02-17T05:18:10.948Z,1016.38
2024-02-17T05:19:11.460Z,1016.40
2024-02-17T05:20:12.400Z,1016.41
2024-02-17T05:21:13.860Z,1016.41
2024-02-17T05:22:14.888Z,1016.46
2024-02-17T05:23:14.848Z,1016.48
2024-02-17T05:24:15.792Z,1016.48
2024-02-17T05:25:16.689Z,1016.45
2024-02-17T05:26:18.354Z,1016.46
2024-02-17T05:27:18.283Z,1016.48
2024-02-17T05:28:19.215Z,1016.53
2024-02-17T05:29:20.141Z,1016.55
2024-02-17T05:30:22.035Z,1016.58
2024-02-17T05:31:21.561Z,1016.62
2024-02-17T05:32:24.389Z,1016.65
2024-02-17T05:33:23.527Z,1016.67
2024-02-17T05:34:24.036Z,1016.67
2024-02-17T05:35:24.939Z,1016.70
2024-02-17T05:36:25.901Z,1016.73
2024-02-17T05:37:26.822Z,1016.74
2024-02-17T05:38:28.352Z,1016.74
2024-02-17T05:39:28.261Z,1016.79
2024-02-17T05:40:29.150Z,1016.82
2024-02-17T05:41:31.872Z,1016.86
2024-02-17T05:42:32.381Z,1016.84
2024-02-17T05:43:33.360Z,1016.84
2024-02-17T05:44:32.256Z,1016.87
2024-02-17T05:45:33.200Z,1016.87
2024-02-17T05:46:34.108Z,1016.85
2024-02-17T05:47:35.075Z,1016.87
2024-02-17T05:48:35.680Z,1016.86
2024-02-17T05:49:36.197Z,1016.90
2024-02-17T05:50:36.921Z,1016.88
2024-02-17T05:51:37.881Z,1016.88
2024-02-17T05:52:38.794Z,1016.89
2024-02-17T05:53:39.699Z,1016.91
2024-02-17T05:54:41.401Z,1016.93
2024-02-17T05:55:41.865Z,1016.97
2024-02-17T05:56:42.275Z,1016.99
2024-02-17T05:57:43.263Z,1016.99
2024-02-17T05:58:44.146Z,1017.00
2024-02-17T05:59:45.063Z,1017.05
2024-02-17T06:00:46.040Z,1017.07
2024-02-17T06:01:46.623Z,1017.08
2024-02-17T06:02:46.997Z,1017.09
2024-02-17T06:03:48.042Z,1017.10
2024-02-17T06:04:50.478Z,1017.07
2024-02-17T06:05:49.400Z,1017.09
2024-02-17T06:06:50.944Z,1017.10
2024-02-17T06:07:50.966Z,1017.11
2024-02-17T06:08:51.420Z,1017.11
2024-02-17T06:09:52.352Z,1017.13
2024-02-17T06:10:53.299Z,1017.13
2024-02-17T06:11:54.210Z,1017.16
2024-02-17T06:12:55.883Z,1017.19
2024-02-17T06:13:57.271Z,1017.21
2024-02-17T06:14:56.511Z,1017.24
2024-02-17T06:15:57.503Z,1017.27
2024-02-17T06:16:58.409Z,1017.30
2024-02-17T06:17:59.403Z,1017.30
2024-02-17T06:19:00.563Z,1017.32
2024-02-17T06:20:01.225Z,1017.32
2024-02-17T06:21:01.626Z,1017.35
2024-02-17T06:22:05.365Z,1017.37
2024-02-17T06:23:03.321Z,1017.39
2024-02-17T06:24:06.398Z,1017.44
2024-02-17T06:25:05.352Z,1017.47
2024-02-17T06:26:07.004Z,1017.51
2024-02-17T06:27:05.912Z,1017.50
2024-02-17T06:28:06.919Z,1017.52
2024-02-17T06:29:08.178Z,1017.53
2024-02-17T06:30:08.627Z,1017.56
2024-02-17T06:31:09.548Z,1017.57
2024-02-17T06:32:10.487Z,1017.60
2024-02-17T06:33:11.525Z,1017.61
2024-02-17T06:34:16.966Z,1017.66
2024-02-17T06:35:13.906Z,1017.65
2024-02-17T06:36:13.664Z,1017.63
2024-02-17T06:37:36.369Z,1017.64
2024-02-17T06:38:20.301Z,1017.65
2024-02-17T06:39:19.202Z,1017.66
2024-02-17T06:40:17.085Z,1017.69
2024-02-17T06:41:18.004Z,1017.70
2024-02-17T06:42:19.920Z,1017.72
2024-02-17T06:43:19.887Z,1017.74
2024-02-17T06:44:20.814Z,1017.74
2024-02-17T06:45:21.736Z,1017.76
2024-02-17T06:46:23.414Z,1017.78
2024-02-17T06:47:24.882Z,1017.79
2024-02-17T06:48:24.487Z,1017.82
2024-02-17T06:49:27.069Z,1017.82
2024-02-17T06:50:26.163Z,1017.83
2024-02-17T06:51:27.680Z,1017.88
2024-02-17T06:52:28.387Z,1017.93
2024-02-17T06:53:29.151Z,1017.95
2024-02-17T06:54:29.418Z,1017.98
2024-02-17T06:55:30.889Z,1017.98
2024-02-17T06:56:30.864Z,1017.99
2024-02-17T06:57:32.914Z,1018.02
2024-02-17T06:58:31.796Z,1018.05
2024-02-17T06:59:32.715Z,1018.03
2024-02-17T07:00:34.436Z,1018.03
2024-02-17T07:01:35.919Z,1018.06
2024-02-17T07:02:36.389Z,1018.06
2024-02-17T07:03:35.869Z,1018.07
2024-02-17T07:04:37.662Z,1018.09
2024-02-17T07:05:37.409Z,1018.13
2024-02-17T07:06:38.437Z,1018.14
2024-02-17T07:07:40.100Z,1018.14
2024-02-17T07:08:39.997Z,1018.16
2024-02-17T07:09:42.028Z,1018.16
2024-02-17T07:10:43.468Z,1018.19
2024-02-17T07:11:42.414Z,1018.20
2024-02-17T07:12:43.423Z,1018.21
2024-02-17T07:13:43.730Z,1018.21
2024-02-17T07:14:44.649Z,1018.21
2024-02-17T07:15:46.556Z,1018.23
2024-02-17T07:16:46.486Z,1018.23
2024-02-17T07:17:47.434Z,1018.25
2024-02-17T07:18:48.458Z,1018.26
2024-02-17T07:19:48.974Z,1018.29
2024-02-17T07:20:53.300Z,1018.32
2024-02-17T07:21:51.792Z,1018.33
2024-02-17T07:22:52.423Z,1018.39
2024-02-17T07:23:53.904Z,1018.40
2024-02-17T07:24:53.242Z,1018.44
2024-02-17T07:25:53.700Z,1018.49
2024-02-17T07:26:54.180Z,1018.51
2024-02-17T07:27:55.015Z,1018.53
2024-02-17T07:28:56.370Z,1018.54
2024-02-17T07:29:56.719Z,1018.56
2024-02-17T07:30:57.673Z,1018.58
2024-02-17T07:31:58.543Z,1018.59
2024-02-17T07:33:02.467Z,1018.60
2024-02-17T07:34:00.516Z,1018.61
2024-02-17T07:35:03.020Z,1018.62
2024-02-17T07:36:02.876Z,1018.66
2024-02-17T07:37:02.736Z,1018.67
2024-02-17T07:38:03.637Z,1018.69
2024-02-17T07:39:05.380Z,1018.71
2024-02-17T07:40:05.285Z,1018.74
2024-02-17T07:41:06.198Z,1018.78
2024-02-17T07:42:09.965Z,1018.79
2024-02-17T07:43:07.890Z,1018.81
2024-02-17T07:44:08.701Z,1018.84
2024-02-17T07:45:09.755Z,1018.85
2024-02-17T07:46:10.157Z,1018.86
2024-02-17T07:47:10.930Z,1018.89
2024-02-17T07:48:12.025Z,1018.89
2024-02-17T07:49:13.686Z,1018.88
2024-02-17T07:50:13.234Z,1018.89
2024-02-17T07:51:14.430Z,1018.93
2024-02-17T07:52:16.902Z,1018.94
2024-02-17T07:53:14.722Z,1018.97
2024-02-17T07:54:15.637Z,1018.96
2024-02-17T07:55:16.578Z,1018.96
2024-02-17T07:56:17.521Z,1018.98
2024-02-17T07:57:20.409Z,1019.01
2024-02-17T07:58:19.350Z,1019.02
2024-02-17T07:59:20.280Z,1019.06
2024-02-17T08:00:22.342Z,1019.09
2024-02-17T08:01:21.853Z,1019.10
2024-02-17T08:02:22.407Z,1019.13
2024-02-17T08:03:23.372Z,1019.15
2024-02-17T08:04:24.275Z,1019.17
2024-02-17T08:05:25.980Z,1019.19
2024-02-17T08:06:26.481Z,1019.19
2024-02-17T08:07:26.477Z,1019.21
2024-02-17T08:08:26.946Z,1019.22
2024-02-17T08:09:28.393Z,1019.22
2024-02-17T08:10:30.407Z,1019.23
2024-02-17T08:11:29.357Z,1019.23
2024-02-17T08:12:30.898Z,1019.24
2024-02-17T08:13:32.386Z,1019.25
2024-02-17T08:14:32.389Z,1019.26
2024-02-17T08:15:33.406Z,1019.26
2024-02-17T08:16:33.401Z,1019.28
2024-02-17T08:17:33.797Z,1019.30
2024-02-17T08:18:34.807Z,1019.32
2024-02-17T08:19:35.298Z,1019.32
2024-02-17T08:20:36.902Z,1019.35
2024-02-17T08:21:37.405Z,1019.37
2024-02-17T08:22:37.304Z,1019.39
2024-02-17T08:23:38.194Z,1019.43
2024-02-17T08:24:39.161Z,1019.43
2024-02-17T08:25:40.042Z,1019.44
2024-02-17T08:26:42.928Z,1019.44
2024-02-17T08:27:41.872Z,1019.44
2024-02-17T08:28:43.382Z,1019.47
2024-02-17T08:29:43.288Z,1019.50
2024-02-17T08:30:44.343Z,1019.51
2024-02-17T08:31:44.803Z,1019.53
2024-02-17T08:32:46.474Z,1019.56
2024-02-17T08:33:46.601Z,1019.58
2024-02-17T08:34:49.047Z,1019.61
2024-02-17T08:35:47.984Z,1019.62
2024-02-17T08:36:49.030Z,1019.64
2024-02-17T08:37:49.469Z,1019.64
2024-02-17T08:38:52.004Z,1019.64
2024-02-17T08:39:50.939Z,1019.61
2024-02-17T08:40:51.881Z,1019.66
2024-02-17T08:41:52.789Z,1019.65
2024-02-17T08:42:53.835Z,1019.64
2024-02-17T08:43:54.230Z,1019.65
2024-02-17T08:44:55.240Z,1019.69
2024-02-17T08:45:56.452Z,1019.70
2024-02-17T08:46:56.440Z,1019.68
2024-02-17T08:47:57.922Z,1019.71
2024-02-17T08:48:58.412Z,1019.76
2024-02-17T08:50:01.184Z,1019.77
2024-02-17T08:50:59.785Z,1019.78
2024-02-17T08:52:00.713Z,1019.80
2024-02-17T08:53:02.389Z,1019.82
2024-02-17T08:54:02.307Z,1019.83
2024-02-17T08:55:03.264Z,1019.84
2024-02-17T08:56:04.160Z,1019.86
2024-02-17T08:57:05.895Z,1019.87
2024-02-17T08:58:07.396Z,1019.85
2024-02-17T08:59:06.441Z,1019.85
2024-02-17T09:00:08.948Z,1019.87
2024-02-17T09:01:07.904Z,1019.89
2024-02-17T09:02:09.432Z,1019.88
2024-02-17T09:03:10.941Z,1019.88
2024-02-17T09:04:09.957Z,1019.87
2024-02-17T09:05:10.392Z,1019.90
2024-02-17T09:06:11.508Z,1019.93
2024-02-17T09:07:12.004Z,1019.98
2024-02-17T09:08:12.886Z,1020.03
2024-02-17T09:09:13.858Z,1020.08
2024-02-17T09:10:14.651Z,1020.10
2024-02-17T09:11:17.142Z,1020.11
2024-02-17T09:12:17.418Z,1020.10
2024-02-17T09:13:17.236Z,1020.10
2024-02-17T09:14:18.186Z,1020.08
2024-02-17T09:15:19.161Z,1020.10
2024-02-17T09:16:20.060Z,1020.11
2024-02-17T09:17:20.970Z,1020.12
2024-02-17T09:18:22.039Z,1020.15
2024-02-17T09:19:22.629Z,1020.16
2024-02-17T09:20:23.069Z,1020.16
2024-02-17T09:21:24.488Z,1020.16
2024-02-17T09:22:24.388Z,1020.16
2024-02-17T09:23:25.341Z,1020.18
2024-02-17T09:24:26.286Z,1020.14
2024-02-17T09:25:27.177Z,1020.13
2024-02-17T09:26:28.106Z,1020.13
2024-02-17T09:27:30.067Z,1020.13
2024-02-17T09:28:32.888Z,1020.13
2024-02-17T09:29:30.808Z,1020.14
2024-02-17T09:30:32.423Z,1020.15
2024-02-17T09:31:35.363Z,1020.18
2024-02-17T09:32:33.064Z,1020.19
2024-02-17T09:33:35.008Z,1020.21
2024-02-17T09:34:34.596Z,1020.20
2024-02-17T09:35:35.020Z,1020.22
2024-02-17T09:36:36.960Z,1020.23
2024-02-17T09:37:36.916Z,1020.24
2024-02-17T09:38:37.846Z,1020.26
2024-02-17T09:39:39.527Z,1020.28
2024-02-17T09:40:41.430Z,1020.29
2024-02-17T09:41:42.893Z,1020.33
2024-02-17T09:42:41.309Z,1020.35
2024-02-17T09:43:43.786Z,1020.35
2024-02-17T09:44:42.769Z,1020.35
2024-02-17T09:45:43.723Z,1020.36
2024-02-17T09:46:44.673Z,1020.39
2024-02-17T09:47:45.589Z,1020.42
2024-02-17T09:48:46.737Z,1020.45
2024-02-17T09:49:48.022Z,1020.49
2024-02-17T09:50:47.987Z,1020.50
2024-02-17T09:51:49.024Z,1020.53
2024-02-17T09:52:50.412Z,1020.53
2024-02-17T09:53:50.300Z,1020.54
2024-02-17T09:54:51.984Z,1020.57
2024-02-17T09:55:51.935Z,1020.59
2024-02-17T09:56:53.439Z,1020.60
2024-02-17T09:57:55.645Z,1020.59
2024-02-17T09:58:53.903Z,1020.59
2024-02-17T09:59:54.870Z,1020.60
2024-02-17T10:00:55.870Z,1020.60
2024-02-17T10:01:56.897Z,1020.62
2024-02-17T10:02:57.326Z,1020.63
2024-02-17T10:03:58.322Z,1020.66
2024-02-17T10:04:59.228Z,1020.69
2024-02-17T10:05:59.800Z,1020.70
2024-02-17T10:07:01.622Z,1020.72
2024-02-17T10:08:01.620Z,1020.73
2024-02-17T10:09:02.594Z,1020.74
2024-02-17T10:10:03.899Z,1020.75
2024-02-17T10:11:03.811Z,1020.74
2024-02-17T10:12:04.776Z,1020.77
2024-02-17T10:13:07.427Z,1020.81
2024-02-17T10:14:06.358Z,1020.84
2024-02-17T10:15:07.294Z,1020.86
2024-02-17T10:16:08.255Z,1020.88
2024-02-17T10:17:09.162Z,1020.88
2024-02-17T10:18:10.166Z,1020.89
2024-02-17T10:19:10.941Z,1020.88
2024-02-17T10:20:11.487Z,1020.92
2024-02-17T10:21:12.940Z,1020.94
2024-02-17T10:22:12.864Z,1020.96
2024-02-17T10:23:13.789Z,1020.95
2024-02-17T10:24:14.752Z,1020.97
2024-02-17T10:25:15.681Z,1021.02
2024-02-17T10:26:17.436Z,1021.02
2024-02-17T10:27:17.386Z,1021.04
2024-02-17T10:28:18.289Z,1021.04
2024-02-17T10:29:19.202Z,1021.06
2024-02-17T10:30:41.184Z,1021.08
2024-02-17T10:31:20.826Z,1021.10
2024-02-17T10:32:22.434Z,1021.09
2024-02-17T10:33:23.015Z,1021.06
2024-02-17T10:34:24.072Z,1021.10
2024-02-17T10:35:24.040Z,1021.12
2024-02-17T10:36:25.126Z,1021.12
2024-02-17T10:37:25.596Z,1021.14
2024-02-17T10:38:26.515Z,1021.13
2024-02-17T10:39:27.443Z,1021.15
2024-02-17T10:40:28.353Z,1021.16
2024-02-17T10:41:29.235Z,1021.15
2024-02-17T10:42:30.212Z,1021.15
2024-02-17T10:43:31.120Z,1021.16
2024-02-17T10:44:32.912Z,1021.16
2024-02-17T10:45:32.934Z,1021.16
2024-02-17T10:46:33.445Z,1021.18
2024-02-17T10:47:34.371Z,1021.17
2024-02-17T10:48:35.374Z,1021.16
2024-02-17T10:49:35.863Z,1021.17
2024-02-17T10:50:36.327Z,1021.20
2024-02-17T10:51:37.981Z,1021.20
2024-02-17T10:52:39.495Z,1021.20
2024-02-17T10:53:38.364Z,1021.20
2024-02-17T10:54:39.505Z,1021.19
2024-02-17T10:55:39.964Z,1021.17
2024-02-17T10:56:41.440Z,1021.18
2024-02-17T10:57:41.884Z,1021.18
2024-02-17T10:58:42.759Z,1021.17
2024-02-17T10:59:43.663Z,1021.15
2024-02-17T11:00:44.811Z,1021.16
2024-02-17T11:01:45.354Z,1021.18
2024-02-17T11:02:46.254Z,1021.19
2024-02-17T11:03:47.231Z,1021.21
2024-02-17T11:04:48.136Z,1021.22
2024-02-17T11:05:49.187Z,1021.22
2024-02-17T11:06:49.981Z,1021.22
2024-02-17T11:07:50.457Z,1021.22
2024-02-17T11:08:51.929Z,1021.24
2024-02-17T11:09:52.362Z,1021.28
2024-02-17T11:10:53.267Z,1021.27
2024-02-17T11:11:54.172Z,1021.30
2024-02-17T11:12:56.038Z,1021.30
2024-02-17T11:13:57.449Z,1021.29
2024-02-17T11:14:56.353Z,1021.28
2024-02-17T11:15:57.425Z,1021.28
2024-02-17T11:16:59.430Z,1021.27
2024-02-17T11:17:58.477Z,1021.27
2024-02-17T11:18:59.991Z,1021.25
2024-02-17T11:19:59.677Z,1021.25
2024-02-17T11:21:00.975Z,1021.24
2024-02-17T11:22:03.487Z,1021.25
2024-02-17T11:23:23.950Z,1021.25
2024-02-17T11:24:02.804Z,1021.24
2024-02-17T11:25:03.808Z,1021.24
2024-02-17T11:26:07.456Z,1021.25
2024-02-17T11:27:05.367Z,1021.24
2024-02-17T11:28:06.307Z,1021.25
2024-02-17T11:29:06.886Z,1021.27
2024-02-17T11:30:09.458Z,1021.27
2024-02-17T11:31:10.012Z,1021.29
2024-02-17T11:32:10.506Z,1021.30
2024-02-17T11:33:09.494Z,1021.32
2024-02-17T11:34:12.631Z,1021.33
2024-02-17T11:35:13.622Z,1021.33
2024-02-17T11:36:12.184Z,1021.33
2024-02-17T11:37:14.030Z,1021.33
2024-02-17T11:38:13.932Z,1021.35
2024-02-17T11:39:14.039Z,1021.37
2024-02-17T11:40:14.470Z,1021.38
2024-02-17T11:41:20.009Z,1021.40
2024-02-17T11:42:19.031Z,1021.41
2024-02-17T11:43:17.878Z,1021.43
2024-02-17T11:44:17.600Z,1021.46
2024-02-17T11:45:20.472Z,1021.48
2024-02-17T11:46:20.963Z,1021.47
2024-02-17T11:47:20.970Z,1021.49
2024-02-17T11:48:24.074Z,1021.52
2024-02-17T11:49:22.647Z,1021.54
2024-02-17T11:50:23.952Z,1021.58
2024-02-17T11:51:28.430Z,1021.57
2024-02-17T11:52:26.971Z,1021.57
2024-02-17T11:53:27.464Z,1021.54
2024-02-17T11:54:28.002Z,1021.53
2024-02-17T11:55:27.961Z,1021.51
2024-02-17T11:56:29.458Z,1021.49
2024-02-17T11:57:31.001Z,1021.46
2024-02-17T11:58:31.008Z,1021.45
2024-02-17T11:59:30.972Z,1021.43
2024-02-17T12:00:31.982Z,1021.42
2024-02-17T12:01:32.985Z,1021.43
2024-02-17T12:02:37.969Z,1021.46
2024-02-17T12:03:33.013Z,1021.48
2024-02-17T12:04:33.989Z,1021.46
2024-02-17T12:05:32.888Z,1021.44
2024-02-17T12:06:35.505Z,1021.43
2024-02-17T12:07:42.466Z,1021.43
2024-02-17T12:08:35.331Z,1021.42
2024-02-17T12:09:38.115Z,1021.44
2024-02-17T12:10:37.012Z,1021.45
2024-02-17T12:11:37.671Z,1021.48
2024-02-17T12:12:38.277Z,1021.51
2024-02-17T12:13:38.716Z,1021.55
2024-02-17T12:14:39.621Z,1021.54
2024-02-17T12:15:40.585Z,1021.55